sensor_id;sensor_type;location;lat;lon;timestamp;P1;durP1;ratioP1;P2;durP2;ratioP2
40288;SDS011;28991;52.028;5.526;2023-11-19T00:00:26;0.52;;;0.52;;
40288;SDS011;28991;52.028;5.526;2023-11-19T00:02:51;0.90;;;0.65;;
40288;SDS011;28991;52.028;5.526;2023-11-19T00:05:17;0.57;;;0.43;;
40288;SDS011;28991;52.028;5.526;2023-11-19T00:07:43;0.50;;;0.50;;
40288;SDS011;28991;52.028;5.526;2023-11-19T00:10:09;0.50;;;0.50;;
40288;SDS011;28991;52.028;5.526;2023-11-19T00:12:40;0.68;;;0.68;;
40288;SDS011;28991;52.028;5.526;2023-11-19T00:15:07;0.45;;;0.43;;
40288;SDS011;28991;52.028;5.526;2023-11-19T00:17:39;0.50;;;0.50;;
40288;SDS011;28991;52.028;5.526;2023-11-19T00:20:07;0.85;;;0.80;;
40288;SDS011;28991;52.028;5.526;2023-11-19T00:22:33;0.70;;;0.63;;
40288;SDS011;28991;52.028;5.526;2023-11-19T00:24:59;0.70;;;0.60;;
40288;SDS011;28991;52.028;5.526;2023-11-19T00:27:24;0.60;;;0.60;;
40288;SDS011;28991;52.028;5.526;2023-11-19T00:29:51;0.65;;;0.50;;
40288;SDS011;28991;52.028;5.526;2023-11-19T00:32:16;0.50;;;0.50;;
40288;SDS011;28991;52.028;5.526;2023-11-19T00:34:45;0.50;;;0.50;;
40288;SDS011;28991;52.028;5.526;2023-11-19T00:37:12;0.63;;;0.63;;
40288;SDS011;28991;52.028;5.526;2023-11-19T00:39:38;0.50;;;0.50;;
40288;SDS011;28991;52.028;5.526;2023-11-19T00:42:04;0.57;;;0.57;;
40288;SDS011;28991;52.028;5.526;2023-11-19T00:44:30;0.60;;;0.60;;
40288;SDS011;28991;52.028;5.526;2023-11-19T00:46:56;0.70;;;0.60;;
40288;SDS011;28991;52.028;5.526;2023-11-19T00:49:21;0.60;;;0.60;;
40288;SDS011;28991;52.028;5.526;2023-11-19T00:51:47;0.68;;;0.50;;
40288;SDS011;28991;52.028;5.526;2023-11-19T00:54:12;0.52;;;0.52;;
40288;SDS011;28991;52.028;5.526;2023-11-19T00:56:38;0.60;;;0.60;;
40288;SDS011;28991;52.028;5.526;2023-11-19T00:59:04;0.40;;;0.40;;
40288;SDS011;28991;52.028;5.526;2023-11-19T01:01:30;0.75;;;0.68;;
40288;SDS011;28991;52.028;5.526;2023-11-19T01:03:55;0.60;;;0.60;;
40288;SDS011;28991;52.028;5.526;2023-11-19T01:06:27;0.60;;;0.60;;
40288;SDS011;28991;52.028;5.526;2023-11-19T01:08:54;0.60;;;0.60;;
40288;SDS011;28991;52.028;5.526;2023-11-19T01:11:21;0.60;;;0.60;;
40288;SDS011;28991;52.028;5.526;2023-11-19T01:13:47;0.40;;;0.40;;
40288;SDS011;28991;52.028;5.526;2023-11-19T01:16:13;1.13;;;0.75;;
40288;SDS011;28991;52.028;5.526;2023-11-19T01:18:39;0.50;;;0.50;;
40288;SDS011;28991;52.028;5.526;2023-11-19T01:21:05;0.70;;;0.70;;
40288;SDS011;28991;52.028;5.526;2023-11-19T01:23:30;0.70;;;0.70;;
40288;SDS011;28991;52.028;5.526;2023-11-19T01:25:57;0.50;;;0.50;;
40288;SDS011;28991;52.028;5.526;2023-11-19T01:28:23;0.70;;;0.60;;
40288;SDS011;28991;52.028;5.526;2023-11-19T01:30:52;0.50;;;0.40;;
40288;SDS011;28991;52.028;5.526;2023-11-19T01:33:18;0.73;;;0.73;;
40288;SDS011;28991;52.028;5.526;2023-11-19T01:35:43;0.63;;;0.60;;
40288;SDS011;28991;52.028;5.526;2023-11-19T01:38:09;0.75;;;0.60;;
40288;SDS011;28991;52.028;5.526;2023-11-19T01:40:35;1.10;;;0.70;;
40288;SDS011;28991;52.028;5.526;2023-11-19T01:43:01;0.52;;;0.50;;
40288;SDS011;28991;52.028;5.526;2023-11-19T01:45:28;0.50;;;0.50;;
40288;SDS011;28991;52.028;5.526;2023-11-19T01:47:55;0.47;;;0.45;;
40288;SDS011;28991;52.028;5.526;2023-11-19T01:50:22;0.68;;;0.60;;
40288;SDS011;28991;52.028;5.526;2023-11-19T01:52:54;0.60;;;0.60;;
40288;SDS011;28991;52.028;5.526;2023-11-19T01:55:22;1.15;;;0.60;;
40288;SDS011;28991;52.028;5.526;2023-11-19T01:57:49;0.85;;;0.55;;
40288;SDS011;28991;52.028;5.526;2023-11-19T02:00:16;0.50;;;0.47;;
40288;SDS011;28991;52.028;5.526;2023-11-19T02:02:44;0.70;;;0.70;;
40288;SDS011;28991;52.028;5.526;2023-11-19T02:05:12;0.73;;;0.68;;
40288;SDS011;28991;52.028;5.526;2023-11-19T02:07:38;0.60;;;0.55;;
40288;SDS011;28991;52.028;5.526;2023-11-19T02:10:04;0.90;;;0.70;;
40288;SDS011;28991;52.028;5.526;2023-11-19T02:12:30;0.50;;;0.50;;
40288;SDS011;28991;52.028;5.526;2023-11-19T02:14:59;0.70;;;0.60;;
40288;SDS011;28991;52.028;5.526;2023-11-19T02:17:25;0.50;;;0.50;;
40288;SDS011;28991;52.028;5.526;2023-11-19T02:19:56;0.70;;;0.70;;
40288;SDS011;28991;52.028;5.526;2023-11-19T02:22:23;0.60;;;0.60;;
40288;SDS011;28991;52.028;5.526;2023-11-19T02:24:49;0.60;;;0.60;;
40288;SDS011;28991;52.028;5.526;2023-11-19T02:30:06;0.50;;;0.50;;
40288;SDS011;28991;52.028;5.526;2023-11-19T02:32:33;0.75;;;0.63;;
40288;SDS011;28991;52.028;5.526;2023-11-19T02:34:59;0.77;;;0.60;;
40288;SDS011;28991;52.028;5.526;2023-11-19T02:37:24;0.50;;;0.50;;
40288;SDS011;28991;52.028;5.526;2023-11-19T02:39:50;0.52;;;0.52;;
40288;SDS011;28991;52.028;5.526;2023-11-19T02:42:16;0.77;;;0.73;;
40288;SDS011;28991;52.028;5.526;2023-11-19T02:44:45;0.57;;;0.50;;
40288;SDS011;28991;52.028;5.526;2023-11-19T02:47:11;0.70;;;0.70;;
40288;SDS011;28991;52.028;5.526;2023-11-19T02:49:37;0.55;;;0.50;;
40288;SDS011;28991;52.028;5.526;2023-11-19T02:52:02;0.50;;;0.50;;
40288;SDS011;28991;52.028;5.526;2023-11-19T02:54:30;1.55;;;0.60;;
40288;SDS011;28991;52.028;5.526;2023-11-19T02:57:00;0.63;;;0.57;;
40288;SDS011;28991;52.028;5.526;2023-11-19T02:59:27;0.70;;;0.60;;
40288;SDS011;28991;52.028;5.526;2023-11-19T03:01:53;0.98;;;0.77;;
40288;SDS011;28991;52.028;5.526;2023-11-19T03:04:20;0.60;;;0.57;;
40288;SDS011;28991;52.028;5.526;2023-11-19T03:06:46;0.70;;;0.63;;
40288;SDS011;28991;52.028;5.526;2023-11-19T03:09:12;1.60;;;0.80;;
40288;SDS011;28991;52.028;5.526;2023-11-19T03:11:37;0.50;;;0.40;;
40288;SDS011;28991;52.028;5.526;2023-11-19T03:14:03;0.60;;;0.52;;
40288;SDS011;28991;52.028;5.526;2023-11-19T03:16:29;0.70;;;0.52;;
40288;SDS011;28991;52.028;5.526;2023-11-19T03:18:54;0.50;;;0.50;;
40288;SDS011;28991;52.028;5.526;2023-11-19T03:21:27;0.63;;;0.63;;
40288;SDS011;28991;52.028;5.526;2023-11-19T03:23:56;1.35;;;0.75;;
40288;SDS011;28991;52.028;5.526;2023-11-19T03:26:25;1.23;;;0.75;;
40288;SDS011;28991;52.028;5.526;2023-11-19T03:28:52;0.63;;;0.60;;
40288;SDS011;28991;52.028;5.526;2023-11-19T03:31:17;0.65;;;0.60;;
40288;SDS011;28991;52.028;5.526;2023-11-19T03:33:43;0.88;;;0.60;;
40288;SDS011;28991;52.028;5.526;2023-11-19T03:36:08;0.98;;;0.60;;
40288;SDS011;28991;52.028;5.526;2023-11-19T03:38:34;1.08;;;0.65;;
40288;SDS011;28991;52.028;5.526;2023-11-19T03:41:00;1.75;;;0.68;;
40288;SDS011;28991;52.028;5.526;2023-11-19T03:43:25;0.60;;;0.50;;
40288;SDS011;28991;52.028;5.526;2023-11-19T03:45:52;0.77;;;0.60;;
40288;SDS011;28991;52.028;5.526;2023-11-19T03:48:17;1.58;;;0.65;;
40288;SDS011;28991;52.028;5.526;2023-11-19T03:50:43;0.50;;;0.50;;
40288;SDS011;28991;52.028;5.526;2023-11-19T03:53:09;0.77;;;0.60;;
40288;SDS011;28991;52.028;5.526;2023-11-19T03:55:36;0.98;;;0.60;;
40288;SDS011;28991;52.028;5.526;2023-11-19T03:58:01;0.60;;;0.60;;
40288;SDS011;28991;52.028;5.526;2023-11-19T04:00:27;0.57;;;0.50;;
40288;SDS011;28991;52.028;5.526;2023-11-19T04:02:52;1.10;;;0.60;;
40288;SDS011;28991;52.028;5.526;2023-11-19T04:05:18;1.52;;;0.70;;
40288;SDS011;28991;52.028;5.526;2023-11-19T04:07:44;1.27;;;0.73;;
40288;SDS011;28991;52.028;5.526;2023-11-19T04:10:09;2.40;;;1.08;;
40288;SDS011;28991;52.028;5.526;2023-11-19T04:12:35;1.13;;;0.77;;
40288;SDS011;28991;52.028;5.526;2023-11-19T04:15:01;1.13;;;0.60;;
40288;SDS011;28991;52.028;5.526;2023-11-19T04:17:26;0.93;;;0.68;;
40288;SDS011;28991;52.028;5.526;2023-11-19T04:19:52;1.40;;;0.60;;
40288;SDS011;28991;52.028;5.526;2023-11-19T04:22:17;1.90;;;0.77;;
40288;SDS011;28991;52.028;5.526;2023-11-19T04:24:43;1.00;;;0.70;;
40288;SDS011;28991;52.028;5.526;2023-11-19T04:27:10;0.90;;;0.60;;
40288;SDS011;28991;52.028;5.526;2023-11-19T04:29:36;0.82;;;0.60;;
40288;SDS011;28991;52.028;5.526;2023-11-19T04:32:01;1.13;;;0.80;;
40288;SDS011;28991;52.028;5.526;2023-11-19T04:34:27;1.45;;;0.63;;
40288;SDS011;28991;52.028;5.526;2023-11-19T04:36:52;0.52;;;0.52;;
40288;SDS011;28991;52.028;5.526;2023-11-19T04:39:19;1.20;;;0.60;;
40288;SDS011;28991;52.028;5.526;2023-11-19T04:44:19;1.10;;;0.77;;
40288;SDS011;28991;52.028;5.526;2023-11-19T04:46:45;1.25;;;0.70;;
40288;SDS011;28991;52.028;5.526;2023-11-19T04:49:11;0.77;;;0.70;;
40288;SDS011;28991;52.028;5.526;2023-11-19T04:51:39;1.40;;;0.82;;
40288;SDS011;28991;52.028;5.526;2023-11-19T04:54:05;2.22;;;0.80;;
40288;SDS011;28991;52.028;5.526;2023-11-19T04:56:32;1.20;;;0.60;;
40288;SDS011;28991;52.028;5.526;2023-11-19T04:58:58;1.38;;;0.77;;
40288;SDS011;28991;52.028;5.526;2023-11-19T05:01:24;1.40;;;0.90;;
40288;SDS011;28991;52.028;5.526;2023-11-19T05:03:49;1.25;;;0.50;;
40288;SDS011;28991;52.028;5.526;2023-11-19T05:06:16;1.55;;;0.88;;
40288;SDS011;28991;52.028;5.526;2023-11-19T05:08:41;1.10;;;0.70;;
40288;SDS011;28991;52.028;5.526;2023-11-19T05:11:07;1.88;;;0.90;;
40288;SDS011;28991;52.028;5.526;2023-11-19T05:13:32;0.50;;;0.50;;
40288;SDS011;28991;52.028;5.526;2023-11-19T05:15:58;0.80;;;0.60;;
40288;SDS011;28991;52.028;5.526;2023-11-19T05:18:23;1.10;;;0.50;;
40288;SDS011;28991;52.028;5.526;2023-11-19T05:20:49;1.35;;;0.70;;
40288;SDS011;28991;52.028;5.526;2023-11-19T05:23:14;1.35;;;0.70;;
40288;SDS011;28991;52.028;5.526;2023-11-19T05:25:40;0.55;;;0.45;;
40288;SDS011;28991;52.028;5.526;2023-11-19T05:28:05;3.08;;;1.13;;
40288;SDS011;28991;52.028;5.526;2023-11-19T05:30:31;0.82;;;0.60;;
40288;SDS011;28991;52.028;5.526;2023-11-19T05:32:57;1.55;;;0.73;;
40288;SDS011;28991;52.028;5.526;2023-11-19T05:35:22;1.73;;;0.85;;
40288;SDS011;28991;52.028;5.526;2023-11-19T05:37:48;1.83;;;0.90;;
40288;SDS011;28991;52.028;5.526;2023-11-19T05:40:15;1.00;;;0.60;;
40288;SDS011;28991;52.028;5.526;2023-11-19T05:42:40;1.20;;;0.68;;
40288;SDS011;28991;52.028;5.526;2023-11-19T05:45:06;0.47;;;0.43;;
40288;SDS011;28991;52.028;5.526;2023-11-19T05:47:33;1.42;;;0.50;;
40288;SDS011;28991;52.028;5.526;2023-11-19T05:49:59;0.93;;;0.57;;
40288;SDS011;28991;52.028;5.526;2023-11-19T05:52:24;1.45;;;0.80;;
40288;SDS011;28991;52.028;5.526;2023-11-19T05:54:50;1.27;;;0.75;;
40288;SDS011;28991;52.028;5.526;2023-11-19T05:57:17;0.70;;;0.55;;
40288;SDS011;28991;52.028;5.526;2023-11-19T05:59:48;1.85;;;0.73;;
40288;SDS011;28991;52.028;5.526;2023-11-19T06:02:14;1.67;;;1.10;;
40288;SDS011;28991;52.028;5.526;2023-11-19T06:04:40;1.35;;;0.63;;
40288;SDS011;28991;52.028;5.526;2023-11-19T06:07:09;1.80;;;0.80;;
40288;SDS011;28991;52.028;5.526;2023-11-19T06:09:34;1.40;;;0.70;;
40288;SDS011;28991;52.028;5.526;2023-11-19T06:12:00;1.50;;;0.85;;
40288;SDS011;28991;52.028;5.526;2023-11-19T06:14:27;2.78;;;0.90;;
40288;SDS011;28991;52.028;5.526;2023-11-19T06:16:52;1.90;;;0.82;;
40288;SDS011;28991;52.028;5.526;2023-11-19T06:19:18;1.00;;;0.77;;
40288;SDS011;28991;52.028;5.526;2023-11-19T06:21:44;1.75;;;0.70;;
40288;SDS011;28991;52.028;5.526;2023-11-19T06:24:09;1.38;;;0.88;;
40288;SDS011;28991;52.028;5.526;2023-11-19T06:26:35;2.03;;;1.00;;
40288;SDS011;28991;52.028;5.526;2023-11-19T06:29:00;1.92;;;0.90;;
40288;SDS011;28991;52.028;5.526;2023-11-19T06:31:26;2.65;;;0.90;;
40288;SDS011;28991;52.028;5.526;2023-11-19T06:33:51;2.47;;;1.08;;
40288;SDS011;28991;52.028;5.526;2023-11-19T06:36:17;1.20;;;0.73;;
40288;SDS011;28991;52.028;5.526;2023-11-19T06:38:43;2.03;;;1.00;;
40288;SDS011;28991;52.028;5.526;2023-11-19T06:41:08;2.42;;;1.00;;
40288;SDS011;28991;52.028;5.526;2023-11-19T06:43:34;0.80;;;0.77;;
40288;SDS011;28991;52.028;5.526;2023-11-19T06:46:01;1.38;;;0.75;;
40288;SDS011;28991;52.028;5.526;2023-11-19T06:48:27;2.13;;;0.98;;
40288;SDS011;28991;52.028;5.526;2023-11-19T06:50:52;2.60;;;1.00;;
40288;SDS011;28991;52.028;5.526;2023-11-19T06:53:18;1.77;;;0.80;;
40288;SDS011;28991;52.028;5.526;2023-11-19T06:55:44;1.05;;;0.70;;
40288;SDS011;28991;52.028;5.526;2023-11-19T06:58:09;1.90;;;0.90;;
40288;SDS011;28991;52.028;5.526;2023-11-19T07:00:35;2.25;;;0.90;;
40288;SDS011;28991;52.028;5.526;2023-11-19T07:03:01;1.75;;;0.95;;
40288;SDS011;28991;52.028;5.526;2023-11-19T07:05:26;1.42;;;0.75;;
40288;SDS011;28991;52.028;5.526;2023-11-19T07:07:53;2.45;;;0.80;;
40288;SDS011;28991;52.028;5.526;2023-11-19T07:10:19;1.80;;;0.80;;
40288;SDS011;28991;52.028;5.526;2023-11-19T07:12:45;1.08;;;0.80;;
40288;SDS011;28991;52.028;5.526;2023-11-19T07:15:10;1.83;;;1.05;;
40288;SDS011;28991;52.028;5.526;2023-11-19T07:17:38;0.95;;;0.77;;
40288;SDS011;28991;52.028;5.526;2023-11-19T07:20:05;1.45;;;0.70;;
40288;SDS011;28991;52.028;5.526;2023-11-19T07:22:30;1.98;;;0.90;;
40288;SDS011;28991;52.028;5.526;2023-11-19T07:24:56;1.13;;;0.75;;
40288;SDS011;28991;52.028;5.526;2023-11-19T07:27:23;1.63;;;0.77;;
40288;SDS011;28991;52.028;5.526;2023-11-19T07:29:49;1.45;;;0.80;;
40288;SDS011;28991;52.028;5.526;2023-11-19T07:32:14;1.08;;;0.65;;
40288;SDS011;28991;52.028;5.526;2023-11-19T07:34:40;2.30;;;1.15;;
40288;SDS011;28991;52.028;5.526;2023-11-19T07:37:06;2.60;;;1.13;;
40288;SDS011;28991;52.028;5.526;2023-11-19T07:39:32;4.43;;;1.60;;
40288;SDS011;28991;52.028;5.526;2023-11-19T07:41:57;4.00;;;1.85;;
40288;SDS011;28991;52.028;5.526;2023-11-19T07:44:23;4.25;;;1.50;;
40288;SDS011;28991;52.028;5.526;2023-11-19T07:46:49;4.57;;;1.60;;
40288;SDS011;28991;52.028;5.526;2023-11-19T07:49:15;4.65;;;1.58;;
40288;SDS011;28991;52.028;5.526;2023-11-19T07:51:40;5.63;;;1.90;;
40288;SDS011;28991;52.028;5.526;2023-11-19T07:54:06;6.90;;;1.90;;
40288;SDS011;28991;52.028;5.526;2023-11-19T07:56:33;5.97;;;2.20;;
40288;SDS011;28991;52.028;5.526;2023-11-19T07:59:04;6.72;;;2.10;;
40288;SDS011;28991;52.028;5.526;2023-11-19T08:01:30;5.43;;;1.75;;
40288;SDS011;28991;52.028;5.526;2023-11-19T08:03:55;4.15;;;1.80;;
40288;SDS011;28991;52.028;5.526;2023-11-19T08:06:21;5.80;;;1.98;;
40288;SDS011;28991;52.028;5.526;2023-11-19T08:08:47;7.03;;;2.10;;
40288;SDS011;28991;52.028;5.526;2023-11-19T08:11:13;5.97;;;2.08;;
40288;SDS011;28991;52.028;5.526;2023-11-19T08:13:39;5.90;;;2.22;;
40288;SDS011;28991;52.028;5.526;2023-11-19T08:16:04;5.65;;;2.10;;
40288;SDS011;28991;52.028;5.526;2023-11-19T08:18:30;7.95;;;1.80;;
40288;SDS011;28991;52.028;5.526;2023-11-19T08:20:56;6.13;;;1.85;;
40288;SDS011;28991;52.028;5.526;2023-11-19T08:23:23;8.35;;;2.50;;
40288;SDS011;28991;52.028;5.526;2023-11-19T08:25:50;6.10;;;2.00;;
40288;SDS011;28991;52.028;5.526;2023-11-19T08:28:17;5.88;;;2.03;;
40288;SDS011;28991;52.028;5.526;2023-11-19T08:30:42;7.35;;;2.08;;
40288;SDS011;28991;52.028;5.526;2023-11-19T08:33:09;6.85;;;2.00;;
40288;SDS011;28991;52.028;5.526;2023-11-19T08:35:34;6.35;;;1.80;;
40288;SDS011;28991;52.028;5.526;2023-11-19T08:38:00;5.88;;;2.05;;
40288;SDS011;28991;52.028;5.526;2023-11-19T08:40:26;4.97;;;1.85;;
40288;SDS011;28991;52.028;5.526;2023-11-19T08:42:52;5.07;;;2.00;;
40288;SDS011;28991;52.028;5.526;2023-11-19T08:45:18;4.50;;;2.10;;
40288;SDS011;28991;52.028;5.526;2023-11-19T08:47:43;5.57;;;1.83;;
40288;SDS011;28991;52.028;5.526;2023-11-19T08:50:10;4.22;;;1.70;;
40288;SDS011;28991;52.028;5.526;2023-11-19T08:52:36;6.30;;;2.38;;
40288;SDS011;28991;52.028;5.526;2023-11-19T08:55:02;5.93;;;2.17;;
40288;SDS011;28991;52.028;5.526;2023-11-19T08:57:30;7.20;;;2.28;;
40288;SDS011;28991;52.028;5.526;2023-11-19T08:59:55;6.65;;;2.38;;
40288;SDS011;28991;52.028;5.526;2023-11-19T09:02:21;3.53;;;1.92;;
40288;SDS011;28991;52.028;5.526;2023-11-19T09:04:47;3.88;;;1.88;;
40288;SDS011;28991;52.028;5.526;2023-11-19T09:07:12;5.22;;;1.63;;
40288;SDS011;28991;52.028;5.526;2023-11-19T09:09:38;5.95;;;2.33;;
40288;SDS011;28991;52.028;5.526;2023-11-19T09:12:03;5.05;;;1.75;;
40288;SDS011;28991;52.028;5.526;2023-11-19T09:14:29;4.35;;;1.67;;
40288;SDS011;28991;52.028;5.526;2023-11-19T09:16:56;3.53;;;1.67;;
40288;SDS011;28991;52.028;5.526;2023-11-19T09:19:21;4.38;;;1.52;;
40288;SDS011;28991;52.028;5.526;2023-11-19T09:21:47;6.88;;;2.15;;
40288;SDS011;28991;52.028;5.526;2023-11-19T09:24:14;4.72;;;1.67;;
40288;SDS011;28991;52.028;5.526;2023-11-19T09:26:40;4.20;;;1.75;;
40288;SDS011;28991;52.028;5.526;2023-11-19T09:29:06;3.95;;;1.67;;
40288;SDS011;28991;52.028;5.526;2023-11-19T09:31:33;5.85;;;1.75;;
40288;SDS011;28991;52.028;5.526;2023-11-19T09:33:59;2.80;;;1.50;;
40288;SDS011;28991;52.028;5.526;2023-11-19T09:36:25;3.63;;;1.40;;
40288;SDS011;28991;52.028;5.526;2023-11-19T09:38:50;5.10;;;2.22;;
40288;SDS011;28991;52.028;5.526;2023-11-19T09:41:16;5.95;;;1.95;;
40288;SDS011;28991;52.028;5.526;2023-11-19T09:43:44;6.35;;;1.63;;
40288;SDS011;28991;52.028;5.526;2023-11-19T09:46:12;11.02;;;2.42;;
40288;SDS011;28991;52.028;5.526;2023-11-19T09:48:40;4.93;;;1.70;;
40288;SDS011;28991;52.028;5.526;2023-11-19T09:51:07;7.25;;;1.80;;
40288;SDS011;28991;52.028;5.526;2023-11-19T09:53:33;4.78;;;1.67;;
40288;SDS011;28991;52.028;5.526;2023-11-19T09:56:01;3.65;;;1.40;;
40288;SDS011;28991;52.028;5.526;2023-11-19T09:58:30;6.15;;;2.05;;
40288;SDS011;28991;52.028;5.526;2023-11-19T10:00:57;4.18;;;1.77;;
40288;SDS011;28991;52.028;5.526;2023-11-19T10:03:32;4.63;;;1.85;;
40288;SDS011;28991;52.028;5.526;2023-11-19T10:06:00;5.53;;;1.52;;
40288;SDS011;28991;52.028;5.526;2023-11-19T10:08:26;6.00;;;1.88;;
40288;SDS011;28991;52.028;5.526;2023-11-19T10:10:51;6.68;;;1.90;;
40288;SDS011;28991;52.028;5.526;2023-11-19T10:13:17;6.70;;;1.73;;
40288;SDS011;28991;52.028;5.526;2023-11-19T10:15:43;6.63;;;2.03;;
40288;SDS011;28991;52.028;5.526;2023-11-19T10:18:09;7.28;;;2.20;;
40288;SDS011;28991;52.028;5.526;2023-11-19T10:20:38;5.53;;;1.88;;
40288;SDS011;28991;52.028;5.526;2023-11-19T10:23:06;6.88;;;2.10;;
40288;SDS011;28991;52.028;5.526;2023-11-19T10:25:32;6.45;;;2.22;;
40288;SDS011;28991;52.028;5.526;2023-11-19T10:27:58;4.30;;;1.70;;
40288;SDS011;28991;52.028;5.526;2023-11-19T10:30:28;5.90;;;1.90;;
40288;SDS011;28991;52.028;5.526;2023-11-19T10:35:55;5.55;;;1.70;;
40288;SDS011;28991;52.028;5.526;2023-11-19T10:38:21;5.20;;;1.98;;
40288;SDS011;28991;52.028;5.526;2023-11-19T10:40:48;5.75;;;2.15;;
40288;SDS011;28991;52.028;5.526;2023-11-19T10:43:15;5.63;;;2.35;;
40288;SDS011;28991;52.028;5.526;2023-11-19T10:45:44;6.30;;;1.98;;
40288;SDS011;28991;52.028;5.526;2023-11-19T10:48:10;6.63;;;2.30;;
40288;SDS011;28991;52.028;5.526;2023-11-19T10:50:37;6.90;;;2.20;;
40288;SDS011;28991;52.028;5.526;2023-11-19T10:53:04;7.78;;;2.38;;
40288;SDS011;28991;52.028;5.526;2023-11-19T10:55:32;4.25;;;2.10;;
40288;SDS011;28991;52.028;5.526;2023-11-19T11:00:30;6.43;;;1.95;;
40288;SDS011;28991;52.028;5.526;2023-11-19T11:03:02;5.80;;;1.92;;
40288;SDS011;28991;52.028;5.526;2023-11-19T11:05:35;4.75;;;2.20;;
40288;SDS011;28991;52.028;5.526;2023-11-19T11:08:04;5.72;;;2.15;;
40288;SDS011;28991;52.028;5.526;2023-11-19T11:10:31;5.47;;;2.28;;
40288;SDS011;28991;52.028;5.526;2023-11-19T11:13:02;4.53;;;1.77;;
40288;SDS011;28991;52.028;5.526;2023-11-19T11:15:28;5.65;;;2.00;;
40288;SDS011;28991;52.028;5.526;2023-11-19T11:17:57;9.70;;;3.38;;
40288;SDS011;28991;52.028;5.526;2023-11-19T11:20:29;5.18;;;1.75;;
40288;SDS011;28991;52.028;5.526;2023-11-19T11:32:08;3.97;;;1.58;;
40288;SDS011;28991;52.028;5.526;2023-11-19T11:39:35;6.82;;;2.33;;
40288;SDS011;28991;52.028;5.526;2023-11-19T11:44:58;4.30;;;1.90;;
40288;SDS011;28991;52.028;5.526;2023-11-19T11:50:14;5.35;;;2.03;;
40288;SDS011;28991;52.028;5.526;2023-11-19T11:55:27;5.47;;;1.88;;
40288;SDS011;28991;52.028;5.526;2023-11-19T11:57:56;6.68;;;2.15;;
40288;SDS011;28991;52.028;5.526;2023-11-19T12:00:23;5.57;;;1.98;;
40288;SDS011;28991;52.028;5.526;2023-11-19T12:02:54;3.53;;;1.90;;
40288;SDS011;28991;52.028;5.526;2023-11-19T12:05:29;3.03;;;1.20;;
40288;SDS011;28991;52.028;5.526;2023-11-19T12:07:55;4.38;;;1.42;;
40288;SDS011;28991;52.028;5.526;2023-11-19T12:10:29;3.60;;;1.77;;
40288;SDS011;28991;52.028;5.526;2023-11-19T12:13:00;3.70;;;1.60;;
40288;SDS011;28991;52.028;5.526;2023-11-19T12:15:26;4.53;;;1.20;;
40288;SDS011;28991;52.028;5.526;2023-11-19T12:17:53;2.83;;;1.60;;
40288;SDS011;28991;52.028;5.526;2023-11-19T12:20:21;3.05;;;1.20;;
40288;SDS011;28991;52.028;5.526;2023-11-19T12:22:50;4.43;;;1.83;;
40288;SDS011;28991;52.028;5.526;2023-11-19T12:25:17;2.55;;;1.15;;
40288;SDS011;28991;52.028;5.526;2023-11-19T12:27:45;2.75;;;1.10;;
40288;SDS011;28991;52.028;5.526;2023-11-19T12:30:12;2.20;;;1.30;;
40288;SDS011;28991;52.028;5.526;2023-11-19T12:32:42;2.65;;;1.38;;
40288;SDS011;28991;52.028;5.526;2023-11-19T12:35:08;2.25;;;1.27;;
40288;SDS011;28991;52.028;5.526;2023-11-19T12:40:16;3.53;;;1.20;;
40288;SDS011;28991;52.028;5.526;2023-11-19T12:42:49;2.75;;;1.30;;
40288;SDS011;28991;52.028;5.526;2023-11-19T12:45:16;2.20;;;1.38;;
40288;SDS011;28991;52.028;5.526;2023-11-19T12:47:42;3.08;;;1.23;;
40288;SDS011;28991;52.028;5.526;2023-11-19T12:50:08;2.15;;;1.20;;
40288;SDS011;28991;52.028;5.526;2023-11-19T12:52:35;1.70;;;1.05;;
40288;SDS011;28991;52.028;5.526;2023-11-19T12:55:02;2.75;;;1.08;;
40288;SDS011;28991;52.028;5.526;2023-11-19T12:57:41;1.63;;;1.00;;
40288;SDS011;28991;52.028;5.526;2023-11-19T13:00:08;2.10;;;1.00;;
40288;SDS011;28991;52.028;5.526;2023-11-19T13:08:02;1.90;;;0.95;;
40288;SDS011;28991;52.028;5.526;2023-11-19T13:10:30;2.00;;;1.10;;
40288;SDS011;28991;52.028;5.526;2023-11-19T13:13:00;2.13;;;1.05;;
40288;SDS011;28991;52.028;5.526;2023-11-19T13:15:30;1.70;;;0.85;;
40288;SDS011;28991;52.028;5.526;2023-11-19T13:17:55;2.60;;;1.00;;
40288;SDS011;28991;52.028;5.526;2023-11-19T13:20:21;3.28;;;1.35;;
40288;SDS011;28991;52.028;5.526;2023-11-19T13:22:57;2.28;;;1.05;;
40288;SDS011;28991;52.028;5.526;2023-11-19T13:25:23;4.05;;;1.25;;
40288;SDS011;28991;52.028;5.526;2023-11-19T13:27:49;2.67;;;1.10;;
40288;SDS011;28991;52.028;5.526;2023-11-19T13:30:15;2.03;;;1.30;;
40288;SDS011;28991;52.028;5.526;2023-11-19T13:32:41;1.77;;;1.00;;
40288;SDS011;28991;52.028;5.526;2023-11-19T13:35:07;2.42;;;1.17;;
40288;SDS011;28991;52.028;5.526;2023-11-19T13:37:33;2.72;;;1.13;;
40288;SDS011;28991;52.028;5.526;2023-11-19T13:39:59;2.47;;;1.27;;
40288;SDS011;28991;52.028;5.526;2023-11-19T13:42:25;2.40;;;1.08;;
40288;SDS011;28991;52.028;5.526;2023-11-19T13:44:51;2.80;;;1.10;;
40288;SDS011;28991;52.028;5.526;2023-11-19T13:47:16;2.80;;;1.27;;
40288;SDS011;28991;52.028;5.526;2023-11-19T13:49:44;2.20;;;1.00;;
40288;SDS011;28991;52.028;5.526;2023-11-19T13:52:10;2.75;;;1.10;;
40288;SDS011;28991;52.028;5.526;2023-11-19T13:54:36;3.50;;;1.27;;
40288;SDS011;28991;52.028;5.526;2023-11-19T13:57:02;2.63;;;1.17;;
40288;SDS011;28991;52.028;5.526;2023-11-19T13:59:29;1.80;;;0.98;;
40288;SDS011;28991;52.028;5.526;2023-11-19T14:01:57;2.53;;;1.40;;
40288;SDS011;28991;52.028;5.526;2023-11-19T14:04:23;2.60;;;1.08;;
40288;SDS011;28991;52.028;5.526;2023-11-19T14:06:48;2.25;;;1.02;;
40288;SDS011;28991;52.028;5.526;2023-11-19T14:09:14;2.55;;;1.20;;
40288;SDS011;28991;52.028;5.526;2023-11-19T14:11:40;2.97;;;1.23;;
40288;SDS011;28991;52.028;5.526;2023-11-19T14:14:05;1.35;;;1.02;;
40288;SDS011;28991;52.028;5.526;2023-11-19T14:16:31;2.90;;;1.00;;
40288;SDS011;28991;52.028;5.526;2023-11-19T14:18:57;3.63;;;1.27;;
40288;SDS011;28991;52.028;5.526;2023-11-19T14:21:23;2.25;;;1.13;;
40288;SDS011;28991;52.028;5.526;2023-11-19T14:23:50;2.67;;;1.30;;
40288;SDS011;28991;52.028;5.526;2023-11-19T14:26:15;2.30;;;1.35;;
40288;SDS011;28991;52.028;5.526;2023-11-19T14:28:41;2.50;;;1.20;;
40288;SDS011;28991;52.028;5.526;2023-11-19T14:31:07;2.00;;;1.30;;
40288;SDS011;28991;52.028;5.526;2023-11-19T14:33:32;2.35;;;1.33;;
40288;SDS011;28991;52.028;5.526;2023-11-19T14:36:00;2.10;;;1.10;;
40288;SDS011;28991;52.028;5.526;2023-11-19T14:38:25;3.45;;;1.27;;
40288;SDS011;28991;52.028;5.526;2023-11-19T14:40:51;3.35;;;1.40;;
40288;SDS011;28991;52.028;5.526;2023-11-19T14:43:17;1.73;;;1.13;;
40288;SDS011;28991;52.028;5.526;2023-11-19T14:45:42;2.28;;;1.05;;
40288;SDS011;28991;52.028;5.526;2023-11-19T14:48:08;2.95;;;1.27;;
40288;SDS011;28991;52.028;5.526;2023-11-19T14:50:35;3.15;;;1.27;;
40288;SDS011;28991;52.028;5.526;2023-11-19T14:53:01;2.42;;;1.10;;
40288;SDS011;28991;52.028;5.526;2023-11-19T14:55:27;4.85;;;1.60;;
40288;SDS011;28991;52.028;5.526;2023-11-19T14:57:52;2.13;;;1.17;;
40288;SDS011;28991;52.028;5.526;2023-11-19T15:00:18;2.60;;;1.20;;
40288;SDS011;28991;52.028;5.526;2023-11-19T15:02:44;2.17;;;1.20;;
40288;SDS011;28991;52.028;5.526;2023-11-19T15:05:10;2.67;;;1.20;;
40288;SDS011;28991;52.028;5.526;2023-11-19T15:07:38;2.03;;;1.10;;
40288;SDS011;28991;52.028;5.526;2023-11-19T15:10:07;2.75;;;1.20;;
40288;SDS011;28991;52.028;5.526;2023-11-19T15:12:36;2.42;;;0.95;;
40288;SDS011;28991;52.028;5.526;2023-11-19T15:15:05;3.67;;;1.60;;
40288;SDS011;28991;52.028;5.526;2023-11-19T15:17:38;2.22;;;1.00;;
40288;SDS011;28991;52.028;5.526;2023-11-19T15:20:04;3.00;;;1.30;;
40288;SDS011;28991;52.028;5.526;2023-11-19T15:22:30;2.35;;;1.23;;
40288;SDS011;28991;52.028;5.526;2023-11-19T15:24:56;2.53;;;1.23;;